sensor_id;sensor_type;location;lat;lon;timestamp;P1;durP1;ratioP1;P2;durP2;ratioP2
70322;SDS011;57735;56.264;43.898;2022-09-09T00:02:20;4.63;;;2.35;;
70322;SDS011;57735;56.264;43.898;2022-09-09T00:04:58;8.50;;;2.35;;
70322;SDS011;57735;56.264;43.898;2022-09-09T00:07:43;2.70;;;2.13;;
70322;SDS011;57735;56.264;43.898;2022-09-09T00:15:32;3.80;;;2.60;;
70322;SDS011;57735;56.264;43.898;2022-09-09T00:21:08;4.03;;;2.22;;
70322;SDS011;57735;56.264;43.898;2022-09-09T00:23:52;2.30;;;1.88;;
70322;SDS011;57735;56.264;43.898;2022-09-09T00:26:47;2.97;;;1.98;;
70322;SDS011;57735;56.264;43.898;2022-09-09T00:32:32;3.75;;;2.67;;
70322;SDS011;57735;56.264;43.898;2022-09-09T00:37:35;3.53;;;2.33;;
70322;SDS011;57735;56.264;43.898;2022-09-09T00:40:15;2.60;;;2.08;;
70322;SDS011;57735;56.264;43.898;2022-09-09T00:42:55;3.90;;;2.10;;
70322;SDS011;57735;56.264;43.898;2022-09-09T00:46:01;12.23;;;2.70;;
70322;SDS011;57735;56.264;43.898;2022-09-09T00:48:58;2.75;;;2.20;;
70322;SDS011;57735;56.264;43.898;2022-09-09T00:52:12;3.83;;;2.03;;
70322;SDS011;57735;56.264;43.898;2022-09-09T00:54:57;5.43;;;2.40;;
70322;SDS011;57735;56.264;43.898;2022-09-09T00:58:08;4.03;;;2.63;;
70322;SDS011;57735;56.264;43.898;2022-09-09T01:00:41;3.08;;;2.20;;
70322;SDS011;57735;56.264;43.898;2022-09-09T01:06:02;2.80;;;2.13;;
70322;SDS011;57735;56.264;43.898;2022-09-09T01:09:00;5.75;;;2.65;;
70322;SDS011;57735;56.264;43.898;2022-09-09T01:14:52;3.42;;;2.00;;
70322;SDS011;57735;56.264;43.898;2022-09-09T01:17:52;2.67;;;1.85;;
70322;SDS011;57735;56.264;43.898;2022-09-09T01:26:38;3.45;;;2.30;;
70322;SDS011;57735;56.264;43.898;2022-09-09T01:29:13;2.50;;;1.80;;
70322;SDS011;57735;56.264;43.898;2022-09-09T01:34:29;4.43;;;2.45;;
70322;SDS011;57735;56.264;43.898;2022-09-09T01:39:40;3.50;;;2.05;;
70322;SDS011;57735;56.264;43.898;2022-09-09T01:42:15;2.40;;;2.03;;
70322;SDS011;57735;56.264;43.898;2022-09-09T01:44:46;2.20;;;1.83;;
70322;SDS011;57735;56.264;43.898;2022-09-09T01:47:17;2.33;;;1.83;;
70322;SDS011;57735;56.264;43.898;2022-09-09T01:49:48;2.72;;;2.08;;
70322;SDS011;57735;56.264;43.898;2022-09-09T01:52:19;4.25;;;2.58;;
70322;SDS011;57735;56.264;43.898;2022-09-09T01:54:49;3.55;;;2.40;;
70322;SDS011;57735;56.264;43.898;2022-09-09T01:57:27;2.88;;;2.28;;
70322;SDS011;57735;56.264;43.898;2022-09-09T02:00:10;3.97;;;2.40;;
70322;SDS011;57735;56.264;43.898;2022-09-09T02:05:38;4.68;;;2.40;;
70322;SDS011;57735;56.264;43.898;2022-09-09T02:08:15;2.42;;;2.00;;
70322;SDS011;57735;56.264;43.898;2022-09-09T02:10:55;3.20;;;2.20;;
70322;SDS011;57735;56.264;43.898;2022-09-09T02:13:31;3.10;;;2.10;;
70322;SDS011;57735;56.264;43.898;2022-09-09T02:16:07;2.95;;;2.15;;
70322;SDS011;57735;56.264;43.898;2022-09-09T02:19:06;5.85;;;2.45;;
70322;SDS011;57735;56.264;43.898;2022-09-09T02:21:44;4.68;;;2.35;;
70322;SDS011;57735;56.264;43.898;2022-09-09T02:24:17;2.80;;;2.30;;
70322;SDS011;57735;56.264;43.898;2022-09-09T02:26:49;5.20;;;2.30;;
70322;SDS011;57735;56.264;43.898;2022-09-09T02:29:25;2.90;;;2.33;;
70322;SDS011;57735;56.264;43.898;2022-09-09T02:32:01;2.65;;;1.92;;
70322;SDS011;57735;56.264;43.898;2022-09-09T02:34:36;2.65;;;2.22;;
70322;SDS011;57735;56.264;43.898;2022-09-09T02:37:13;7.28;;;2.15;;
70322;SDS011;57735;56.264;43.898;2022-09-09T02:39:48;2.75;;;2.10;;
70322;SDS011;57735;56.264;43.898;2022-09-09T02:42:19;3.72;;;2.42;;
70322;SDS011;57735;56.264;43.898;2022-09-09T02:44:49;2.58;;;1.88;;
70322;SDS011;57735;56.264;43.898;2022-09-09T02:50:13;3.30;;;2.15;;
70322;SDS011;57735;56.264;43.898;2022-09-09T02:58:25;2.37;;;1.90;;
70322;SDS011;57735;56.264;43.898;2022-09-09T03:00:56;5.97;;;3.03;;
70322;SDS011;57735;56.264;43.898;2022-09-09T03:03:28;2.15;;;1.80;;
70322;SDS011;57735;56.264;43.898;2022-09-09T03:05:59;3.15;;;1.80;;
70322;SDS011;57735;56.264;43.898;2022-09-09T03:08:32;3.55;;;1.67;;
70322;SDS011;57735;56.264;43.898;2022-09-09T03:11:03;2.80;;;2.00;;
70322;SDS011;57735;56.264;43.898;2022-09-09T03:13:39;2.80;;;1.80;;
70322;SDS011;57735;56.264;43.898;2022-09-09T03:16:10;2.75;;;1.80;;
70322;SDS011;57735;56.264;43.898;2022-09-09T03:18:43;3.35;;;2.30;;
70322;SDS011;57735;56.264;43.898;2022-09-09T03:21:17;5.82;;;2.50;;
70322;SDS011;57735;56.264;43.898;2022-09-09T03:23:50;3.80;;;2.08;;
70322;SDS011;57735;56.264;43.898;2022-09-09T03:26:21;2.70;;;1.90;;
70322;SDS011;57735;56.264;43.898;2022-09-09T03:28:51;1.75;;;1.48;;
70322;SDS011;57735;56.264;43.898;2022-09-09T03:31:23;3.47;;;2.05;;
70322;SDS011;57735;56.264;43.898;2022-09-09T03:33:54;2.55;;;1.70;;
70322;SDS011;57735;56.264;43.898;2022-09-09T03:36:25;3.28;;;2.00;;
70322;SDS011;57735;56.264;43.898;2022-09-09T03:38:57;3.58;;;2.28;;
70322;SDS011;57735;56.264;43.898;2022-09-09T03:41:28;5.95;;;2.55;;
70322;SDS011;57735;56.264;43.898;2022-09-09T03:44:01;4.05;;;2.30;;
70322;SDS011;57735;56.264;43.898;2022-09-09T03:46:32;4.93;;;2.47;;
70322;SDS011;57735;56.264;43.898;2022-09-09T03:49:04;2.60;;;2.10;;
70322;SDS011;57735;56.264;43.898;2022-09-09T03:51:34;10.05;;;2.58;;
70322;SDS011;57735;56.264;43.898;2022-09-09T03:54:06;3.88;;;2.20;;
70322;SDS011;57735;56.264;43.898;2022-09-09T03:56:40;4.20;;;1.90;;
70322;SDS011;57735;56.264;43.898;2022-09-09T03:59:11;2.83;;;1.90;;
70322;SDS011;57735;56.264;43.898;2022-09-09T04:01:44;4.68;;;2.10;;
70322;SDS011;57735;56.264;43.898;2022-09-09T04:04:15;5.82;;;2.10;;
70322;SDS011;57735;56.264;43.898;2022-09-09T04:06:46;2.88;;;2.03;;
70322;SDS011;57735;56.264;43.898;2022-09-09T04:09:18;4.28;;;2.20;;
70322;SDS011;57735;56.264;43.898;2022-09-09T04:11:52;7.63;;;2.60;;
70322;SDS011;57735;56.264;43.898;2022-09-09T04:14:24;15.90;;;2.85;;
70322;SDS011;57735;56.264;43.898;2022-09-09T04:16:58;4.50;;;2.25;;
70322;SDS011;57735;56.264;43.898;2022-09-09T04:19:30;4.75;;;2.58;;
70322;SDS011;57735;56.264;43.898;2022-09-09T04:22:01;6.30;;;2.65;;
70322;SDS011;57735;56.264;43.898;2022-09-09T04:24:32;2.67;;;2.00;;
70322;SDS011;57735;56.264;43.898;2022-09-09T04:27:03;1.52;;;1.30;;
70322;SDS011;57735;56.264;43.898;2022-09-09T04:29:34;4.07;;;1.85;;
70322;SDS011;57735;56.264;43.898;2022-09-09T04:32:08;4.78;;;1.83;;
70322;SDS011;57735;56.264;43.898;2022-09-09T04:34:39;4.65;;;1.98;;
70322;SDS011;57735;56.264;43.898;2022-09-09T04:37:11;4.18;;;1.80;;
70322;SDS011;57735;56.264;43.898;2022-09-09T04:39:44;2.72;;;2.00;;
70322;SDS011;57735;56.264;43.898;2022-09-09T04:42:15;3.45;;;1.77;;
70322;SDS011;57735;56.264;43.898;2022-09-09T04:44:47;2.20;;;1.70;;
70322;SDS011;57735;56.264;43.898;2022-09-09T04:47:18;2.20;;;1.60;;
70322;SDS011;57735;56.264;43.898;2022-09-09T04:49:49;2.50;;;1.70;;
70322;SDS011;57735;56.264;43.898;2022-09-09T04:52:20;5.30;;;1.60;;
70322;SDS011;57735;56.264;43.898;2022-09-09T04:54:51;1.63;;;1.20;;
70322;SDS011;57735;56.264;43.898;2022-09-09T04:57:24;5.70;;;1.92;;
70322;SDS011;57735;56.264;43.898;2022-09-09T04:59:55;4.00;;;1.70;;
70322;SDS011;57735;56.264;43.898;2022-09-09T05:02:26;3.88;;;1.90;;
70322;SDS011;57735;56.264;43.898;2022-09-09T05:04:57;4.22;;;1.63;;
70322;SDS011;57735;56.264;43.898;2022-09-09T05:07:28;2.70;;;1.45;;
70322;SDS011;57735;56.264;43.898;2022-09-09T05:09:59;1.75;;;1.40;;
70322;SDS011;57735;56.264;43.898;2022-09-09T05:12:30;2.38;;;1.50;;
70322;SDS011;57735;56.264;43.898;2022-09-09T05:15:01;2.88;;;1.50;;
70322;SDS011;57735;56.264;43.898;2022-09-09T05:17:34;3.03;;;1.55;;
70322;SDS011;57735;56.264;43.898;2022-09-09T05:20:05;2.88;;;2.17;;
70322;SDS011;57735;56.264;43.898;2022-09-09T05:22:36;2.60;;;1.48;;
70322;SDS011;57735;56.264;43.898;2022-09-09T05:25:06;1.58;;;1.35;;
70322;SDS011;57735;56.264;43.898;2022-09-09T05:27:38;2.88;;;1.20;;
70322;SDS011;57735;56.264;43.898;2022-09-09T05:30:09;5.22;;;1.50;;
70322;SDS011;57735;56.264;43.898;2022-09-09T05:32:40;1.70;;;1.20;;
70322;SDS011;57735;56.264;43.898;2022-09-09T05:35:11;1.40;;;1.10;;
70322;SDS011;57735;56.264;43.898;2022-09-09T05:37:43;4.57;;;1.80;;
70322;SDS011;57735;56.264;43.898;2022-09-09T05:40:14;3.17;;;0.80;;
70322;SDS011;57735;56.264;43.898;2022-09-09T05:42:45;6.22;;;1.38;;
70322;SDS011;57735;56.264;43.898;2022-09-09T05:45:16;4.57;;;1.10;;
70322;SDS011;57735;56.264;43.898;2022-09-09T05:47:51;2.97;;;0.90;;
70322;SDS011;57735;56.264;43.898;2022-09-09T05:50:28;1.33;;;0.65;;
70322;SDS011;57735;56.264;43.898;2022-09-09T05:52:59;2.60;;;1.23;;
70322;SDS011;57735;56.264;43.898;2022-09-09T05:55:30;1.58;;;1.00;;
70322;SDS011;57735;56.264;43.898;2022-09-09T05:58:01;1.63;;;0.90;;
70322;SDS011;57735;56.264;43.898;2022-09-09T06:00:32;2.55;;;1.00;;
70322;SDS011;57735;56.264;43.898;2022-09-09T06:03:03;1.50;;;0.90;;
70322;SDS011;57735;56.264;43.898;2022-09-09T06:05:34;1.20;;;0.93;;
70322;SDS011;57735;56.264;43.898;2022-09-09T06:08:05;3.15;;;0.93;;
70322;SDS011;57735;56.264;43.898;2022-09-09T06:10:37;1.50;;;0.90;;
70322;SDS011;57735;56.264;43.898;2022-09-09T06:13:08;1.63;;;0.88;;
70322;SDS011;57735;56.264;43.898;2022-09-09T06:15:48;2.40;;;0.80;;
70322;SDS011;57735;56.264;43.898;2022-09-09T06:18:39;0.90;;;0.80;;
70322;SDS011;57735;56.264;43.898;2022-09-09T06:21:17;3.63;;;0.60;;
70322;SDS011;57735;56.264;43.898;2022-09-09T06:23:52;0.82;;;0.50;;
70322;SDS011;57735;56.264;43.898;2022-09-09T06:26:24;5.78;;;0.82;;
70322;SDS011;57735;56.264;43.898;2022-09-09T06:29:00;0.60;;;0.45;;
70322;SDS011;57735;56.264;43.898;2022-09-09T06:31:34;4.18;;;0.50;;
70322;SDS011;57735;56.264;43.898;2022-09-09T06:34:09;0.95;;;0.45;;
70322;SDS011;57735;56.264;43.898;2022-09-09T06:36:43;4.43;;;0.68;;
70322;SDS011;57735;56.264;43.898;2022-09-09T06:39:16;0.75;;;0.50;;
70322;SDS011;57735;56.264;43.898;2022-09-09T06:41:47;0.60;;;0.50;;
70322;SDS011;57735;56.264;43.898;2022-09-09T06:44:18;1.45;;;0.70;;
70322;SDS011;57735;56.264;43.898;2022-09-09T06:46:50;2.00;;;0.65;;
70322;SDS011;57735;56.264;43.898;2022-09-09T06:49:21;0.85;;;0.60;;
70322;SDS011;57735;56.264;43.898;2022-09-09T06:51:52;1.98;;;0.50;;
70322;SDS011;57735;56.264;43.898;2022-09-09T06:54:22;0.60;;;0.40;;
70322;SDS011;57735;56.264;43.898;2022-09-09T06:56:55;2.05;;;0.50;;
70322;SDS011;57735;56.264;43.898;2022-09-09T06:59:28;0.85;;;0.52;;
70322;SDS011;57735;56.264;43.898;2022-09-09T07:02:01;2.05;;;0.75;;
70322;SDS011;57735;56.264;43.898;2022-09-09T07:04:32;1.20;;;0.52;;
70322;SDS011;57735;56.264;43.898;2022-09-09T07:07:07;2.25;;;0.40;;
70322;SDS011;57735;56.264;43.898;2022-09-09T07:09:40;1.05;;;0.50;;
70322;SDS011;57735;56.264;43.898;2022-09-09T07:12:10;2.38;;;1.13;;
70322;SDS011;57735;56.264;43.898;2022-09-09T07:14:43;1.35;;;0.70;;
70322;SDS011;57735;56.264;43.898;2022-09-09T07:17:14;1.40;;;0.65;;
70322;SDS011;57735;56.264;43.898;2022-09-09T07:19:45;1.60;;;0.60;;
70322;SDS011;57735;56.264;43.898;2022-09-09T07:22:15;2.80;;;0.90;;
70322;SDS011;57735;56.264;43.898;2022-09-09T07:24:46;1.92;;;0.80;;
70322;SDS011;57735;56.264;43.898;2022-09-09T07:27:17;2.78;;;0.60;;
70322;SDS011;57735;56.264;43.898;2022-09-09T07:29:51;2.93;;;0.80;;
70322;SDS011;57735;56.264;43.898;2022-09-09T07:32:24;2.63;;;0.82;;
70322;SDS011;57735;56.264;43.898;2022-09-09T07:34:58;2.47;;;0.73;;
70322;SDS011;57735;56.264;43.898;2022-09-09T07:37:29;2.38;;;0.50;;
70322;SDS011;57735;56.264;43.898;2022-09-09T07:40:00;2.72;;;0.60;;
70322;SDS011;57735;56.264;43.898;2022-09-09T07:42:33;0.65;;;0.50;;
70322;SDS011;57735;56.264;43.898;2022-09-09T07:45:04;3.08;;;0.65;;
70322;SDS011;57735;56.264;43.898;2022-09-09T07:47:38;1.98;;;0.47;;
70322;SDS011;57735;56.264;43.898;2022-09-09T07:50:09;4.38;;;0.52;;
70322;SDS011;57735;56.264;43.898;2022-09-09T07:52:40;0.50;;;0.50;;
70322;SDS011;57735;56.264;43.898;2022-09-09T07:55:11;2.30;;;0.50;;
70322;SDS011;57735;56.264;43.898;2022-09-09T07:57:42;0.52;;;0.40;;
70322;SDS011;57735;56.264;43.898;2022-09-09T08:00:13;1.65;;;0.60;;
70322;SDS011;57735;56.264;43.898;2022-09-09T08:02:45;1.80;;;0.52;;
70322;SDS011;57735;56.264;43.898;2022-09-09T08:05:16;1.45;;;0.82;;
70322;SDS011;57735;56.264;43.898;2022-09-09T08:07:48;2.28;;;1.17;;
70322;SDS011;57735;56.264;43.898;2022-09-09T08:10:19;3.08;;;1.60;;
70322;SDS011;57735;56.264;43.898;2022-09-09T08:12:50;2.95;;;1.50;;
70322;SDS011;57735;56.264;43.898;2022-09-09T08:15:28;2.13;;;1.50;;
70322;SDS011;57735;56.264;43.898;2022-09-09T08:18:04;3.15;;;0.70;;
70322;SDS011;57735;56.264;43.898;2022-09-09T08:20:36;0.98;;;0.60;;
70322;SDS011;57735;56.264;43.898;2022-09-09T08:23:07;4.25;;;0.50;;
70322;SDS011;57735;56.264;43.898;2022-09-09T08:25:38;0.40;;;0.40;;
70322;SDS011;57735;56.264;43.898;2022-09-09T08:28:09;4.30;;;0.60;;
70322;SDS011;57735;56.264;43.898;2022-09-09T08:30:40;2.53;;;0.55;;
70322;SDS011;57735;56.264;43.898;2022-09-09T08:33:11;1.25;;;0.80;;
70322;SDS011;57735;56.264;43.898;2022-09-09T08:35:49;2.20;;;0.80;;
70322;SDS011;57735;56.264;43.898;2022-09-09T08:38:20;3.30;;;1.00;;
70322;SDS011;57735;56.264;43.898;2022-09-09T08:40:51;1.67;;;0.80;;
70322;SDS011;57735;56.264;43.898;2022-09-09T08:43:31;0.85;;;0.50;;
70322;SDS011;57735;56.264;43.898;2022-09-09T08:46:09;2.97;;;0.90;;
70322;SDS011;57735;56.264;43.898;2022-09-09T08:48:51;1.77;;;0.50;;
70322;SDS011;57735;56.264;43.898;2022-09-09T08:51:37;1.33;;;0.60;;
70322;SDS011;57735;56.264;43.898;2022-09-09T08:54:08;2.97;;;0.70;;
70322;SDS011;57735;56.264;43.898;2022-09-09T08:56:40;0.40;;;0.32;;
70322;SDS011;57735;56.264;43.898;2022-09-09T08:59:11;1.17;;;0.60;;
70322;SDS011;57735;56.264;43.898;2022-09-09T09:12:56;1.25;;;0.73;;
70322;SDS011;57735;56.264;43.898;2022-09-09T09:15:35;2.17;;;0.63;;
70322;SDS011;57735;56.264;43.898;2022-09-09T09:18:08;0.93;;;0.55;;
70322;SDS011;57735;56.264;43.898;2022-09-09T09:20:58;2.22;;;0.50;;
70322;SDS011;57735;56.264;43.898;2022-09-09T09:24:01;2.30;;;0.43;;
70322;SDS011;57735;56.264;43.898;2022-09-09T09:26:35;0.47;;;0.47;;
70322;SDS011;57735;56.264;43.898;2022-09-09T09:31:46;1.35;;;0.60;;
70322;SDS011;57735;56.264;43.898;2022-09-09T09:34:23;3.28;;;0.80;;
70322;SDS011;57735;56.264;43.898;2022-09-09T09:36:57;2.35;;;0.70;;
70322;SDS011;57735;56.264;43.898;2022-09-09T09:39:33;1.60;;;0.47;;
70322;SDS011;57735;56.264;43.898;2022-09-09T09:42:10;2.45;;;0.60;;
70322;SDS011;57735;56.264;43.898;2022-09-09T09:44:46;2.88;;;0.60;;
70322;SDS011;57735;56.264;43.898;2022-09-09T09:47:18;0.60;;;0.60;;
70322;SDS011;57735;56.264;43.898;2022-09-09T09:49:59;3.60;;;0.50;;
70322;SDS011;57735;56.264;43.898;2022-09-09T09:52:34;3.85;;;0.50;;
70322;SDS011;57735;56.264;43.898;2022-09-09T09:55:11;0.88;;;0.40;;
70322;SDS011;57735;56.264;43.898;2022-09-09T09:57:44;1.88;;;0.50;;
70322;SDS011;57735;56.264;43.898;2022-09-09T10:00:16;0.40;;;0.40;;
70322;SDS011;57735;56.264;43.898;2022-09-09T10:02:51;2.22;;;0.60;;
70322;SDS011;57735;56.264;43.898;2022-09-09T10:05:23;1.10;;;0.50;;
70322;SDS011;57735;56.264;43.898;2022-09-09T10:08:11;3.15;;;0.60;;
70322;SDS011;57735;56.264;43.898;2022-09-09T10:19:41;0.55;;;0.40;;
70322;SDS011;57735;56.264;43.898;2022-09-09T10:22:26;3.33;;;0.60;;
70322;SDS011;57735;56.264;43.898;2022-09-09T10:33:37;1.98;;;0.40;;
70322;SDS011;57735;56.264;43.898;2022-09-09T10:36:28;0.60;;;0.45;;
70322;SDS011;57735;56.264;43.898;2022-09-09T10:42:16;1.10;;;0.75;;
70322;SDS011;57735;56.264;43.898;2022-09-09T10:53:12;2.85;;;0.50;;
70322;SDS011;57735;56.264;43.898;2022-09-09T10:55:56;2.78;;;0.38;;
70322;SDS011;57735;56.264;43.898;2022-09-09T10:58:50;1.70;;;0.50;;
70322;SDS011;57735;56.264;43.898;2022-09-09T11:01:30;2.35;;;0.80;;
70322;SDS011;57735;56.264;43.898;2022-09-09T11:04:15;4.80;;;0.73;;
70322;SDS011;57735;56.264;43.898;2022-09-09T11:06:53;0.60;;;0.60;;
70322;SDS011;57735;56.264;43.898;2022-09-09T11:09:26;1.00;;;0.50;;
70322;SDS011;57735;56.264;43.898;2022-09-09T11:12:01;5.13;;;0.70;;
70322;SDS011;57735;56.264;43.898;2022-09-09T11:14:36;0.30;;;0.30;;
70322;SDS011;57735;56.264;43.898;2022-09-09T11:17:20;4.45;;;0.50;;
70322;SDS011;57735;56.264;43.898;2022-09-09T11:19:55;2.55;;;0.47;;
70322;SDS011;57735;56.264;43.898;2022-09-09T11:33:48;2.38;;;0.50;;
70322;SDS011;57735;56.264;43.898;2022-09-09T11:42:07;0.85;;;0.40;;
70322;SDS011;57735;56.264;43.898;2022-09-09T11:44:46;3.05;;;1.27;;
70322;SDS011;57735;56.264;43.898;2022-09-09T11:47:28;1.73;;;0.60;;
70322;SDS011;57735;56.264;43.898;2022-09-09T11:52:45;0.75;;;0.52;;
70322;SDS011;57735;56.264;43.898;2022-09-09T11:55:33;2.03;;;0.70;;
70322;SDS011;57735;56.264;43.898;2022-09-09T12:06:19;0.90;;;0.40;;
70322;SDS011;57735;56.264;43.898;2022-09-09T12:09:12;1.13;;;0.63;;
70322;SDS011;57735;56.264;43.898;2022-09-09T12:11:48;0.63;;;0.50;;
70322;SDS011;57735;56.264;43.898;2022-09-09T12:14:23;2.55;;;0.80;;
70322;SDS011;57735;56.264;43.898;2022-09-09T12:19:47;0.90;;;0.57;;
70322;SDS011;57735;56.264;43.898;2022-09-09T12:28:18;1.20;;;0.63;;
70322;SDS011;57735;56.264;43.898;2022-09-09T12:33:39;0.93;;;0.50;;
70322;SDS011;57735;56.264;43.898;2022-09-09T12:36:16;4.00;;;0.70;;
70322;SDS011;57735;56.264;43.898;2022-09-09T12:38:52;2.15;;;0.70;;
70322;SDS011;57735;56.264;43.898;2022-09-09T12:41:26;3.15;;;0.50;;
70322;SDS011;57735;56.264;43.898;2022-09-09T12:44:05;2.47;;;0.70;;
70322;SDS011;57735;56.264;43.898;2022-09-09T12:46:43;0.55;;;0.40;;
70322;SDS011;57735;56.264;43.898;2022-09-09T12:49:35;1.70;;;0.60;;
70322;SDS011;57735;56.264;43.898;2022-09-09T12:52:13;1.27;;;0.68;;
70322;SDS011;57735;56.264;43.898;2022-09-09T12:54:45;1.20;;;0.85;;
70322;SDS011;57735;56.264;43.898;2022-09-09T12:57:17;2.38;;;0.68;;
70322;SDS011;57735;56.264;43.898;2022-09-09T12:59:50;1.88;;;0.80;;
70322;SDS011;57735;56.264;43.898;2022-09-09T13:02:22;1.27;;;0.82;;
70322;SDS011;57735;56.264;43.898;2022-09-09T13:05:12;1.38;;;0.70;;
70322;SDS011;57735;56.264;43.898;2022-09-09T13:08:05;1.48;;;0.93;;
70322;SDS011;57735;56.264;43.898;2022-09-09T13:10:44;3.33;;;0.90;;
70322;SDS011;57735;56.264;43.898;2022-09-09T13:13:23;0.90;;;0.90;;
70322;SDS011;57735;56.264;43.898;2022-09-09T13:15:57;1.65;;;0.75;;
70322;SDS011;57735;56.264;43.898;2022-09-09T13:18:36;2.78;;;0.90;;
70322;SDS011;57735;56.264;43.898;2022-09-09T13:21:11;3.10;;;1.00;;
70322;SDS011;57735;56.264;43.898;2022-09-09T13:23:42;4.05;;;1.48;;
70322;SDS011;57735;56.264;43.898;2022-09-09T13:26:24;2.00;;;1.20;;
70322;SDS011;57735;56.264;43.898;2022-09-09T13:29:07;3.42;;;1.55;;
70322;SDS011;57735;56.264;43.898;2022-09-09T13:31:51;3.55;;;1.60;;
70322;SDS011;57735;56.264;43.898;2022-09-09T13:37:03;2.90;;;1.48;;
70322;SDS011;57735;56.264;43.898;2022-09-09T13:39:36;2.03;;;1.10;;
70322;SDS011;57735;56.264;43.898;2022-09-09T13:42:19;3.47;;;1.00;;
70322;SDS011;57735;56.264;43.898;2022-09-09T13:44:55;3.42;;;0.90;;
70322;SDS011;57735;56.264;43.898;2022-09-09T13:47:32;1.17;;;0.80;;
70322;SDS011;57735;56.264;43.898;2022-09-09T13:50:25;5.70;;;1.30;;
70322;SDS011;57735;56.264;43.898;2022-09-09T13:53:00;6.55;;;1.65;;
70322;SDS011;57735;56.264;43.898;2022-09-09T13:55:31;2.30;;;1.15;;
70322;SDS011;57735;56.264;43.898;2022-09-09T13:58:03;5.63;;;1.25;;
70322;SDS011;57735;56.264;43.898;2022-09-09T14:00:35;1.98;;;0.95;;
70322;SDS011;57735;56.264;43.898;2022-09-09T14:03:14;1.55;;;0.90;;
70322;SDS011;57735;56.264;43.898;2022-09-09T14:05:44;2.83;;;1.13;;
70322;SDS011;57735;56.264;43.898;2022-09-09T14:08:21;2.10;;;1.10;;
70322;SDS011;57735;56.264;43.898;2022-09-09T14:10:54;2.20;;;1.20;;
70322;SDS011;57735;56.264;43.898;2022-09-09T14:13:26;2.47;;;1.20;;
70322;SDS011;57735;56.264;43.898;2022-09-09T14:15:57;6.60;;;1.60;;
70322;SDS011;57735;56.264;43.898;2022-09-09T14:18:30;2.50;;;1.20;;
70322;SDS011;57735;56.264;43.898;2022-09-09T14:21:00;1.48;;;1.08;;
70322;SDS011;57735;56.264;43.898;2022-09-09T14:23:33;11.80;;;2.05;;
70322;SDS011;57735;56.264;43.898;2022-09-09T14:26:04;2.85;;;1.05;;
70322;SDS011;57735;56.264;43.898;2022-09-09T14:28:36;5.57;;;1.25;;
70322;SDS011;57735;56.264;43.898;2022-09-09T14:31:07;3.75;;;1.23;;
70322;SDS011;57735;56.264;43.898;2022-09-09T14:33:40;1.88;;;0.80;;
70322;SDS011;57735;56.264;43.898;2022-09-09T14:36:11;3.58;;;0.80;;
70322;SDS011;57735;56.264;43.898;2022-09-09T14:38:45;2.03;;;1.00;;
70322;SDS011;57735;56.264;43.898;2022-09-09T14:41:17;9.45;;;1.00;;
70322;SDS011;57735;56.264;43.898;2022-09-09T14:43:49;2.28;;;0.75;;
70322;SDS011;57735;56.264;43.898;2022-09-09T14:46:21;3.97;;;0.93;;
70322;SDS011;57735;56.264;43.898;2022-09-09T14:48:53;6.50;;;1.10;;
70322;SDS011;57735;56.264;43.898;2022-09-09T14:51:24;8.63;;;1.00;;
70322;SDS011;57735;56.264;43.898;2022-09-09T14:53:58;2.55;;;0.63;;
70322;SDS011;57735;56.264;43.898;2022-09-09T14:56:34;4.30;;;1.40;;
70322;SDS011;57735;56.264;43.898;2022-09-09T14:59:05;7.22;;;1.20;;
70322;SDS011;57735;56.264;43.898;2022-09-09T15:01:36;5.07;;;1.55;;
70322;SDS011;57735;56.264;43.898;2022-09-09T15:04:06;4.13;;;1.52;;
70322;SDS011;57735;56.264;43.898;2022-09-09T15:06:38;1.88;;;1.25;;
70322;SDS011;57735;56.264;43.898;2022-09-09T15:09:09;3.13;;;1.50;;
70322;SDS011;57735;56.264;43.898;2022-09-09T15:11:40;7.97;;;2.50;;
70322;SDS011;57735;56.264;43.898;2022-09-09T15:14:11;4.60;;;1.80;;
70322;SDS011;57735;56.264;43.898;2022-09-09T15:16:42;3.40;;;1.83;;
70322;SDS011;57735;56.264;43.898;2022-09-09T15:19:13;8.02;;;1.67;;
70322;SDS011;57735;56.264;43.898;2022-09-09T15:21:44;5.53;;;2.05;;
70322;SDS011;57735;56.264;43.898;2022-09-09T15:24:17;10.80;;;2.20;;
70322;SDS011;57735;56.264;43.898;2022-09-09T15:26:47;6.20;;;2.00;;
70322;SDS011;57735;56.264;43.898;2022-09-09T15:29:18;8.95;;;2.42;;
70322;SDS011;57735;56.264;43.898;2022-09-09T15:31:49;5.68;;;1.85;;
70322;SDS011;57735;56.264;43.898;2022-09-09T15:34:20;6.18;;;2.40;;
70322;SDS011;57735;56.264;43.898;2022-09-09T15:36:52;4.60;;;1.60;;
70322;SDS011;57735;56.264;43.898;2022-09-09T15:39:23;5.00;;;1.95;;
70322;SDS011;57735;56.264;43.898;2022-09-09T15:41:54;11.30;;;2.30;;
70322;SDS011;57735;56.264;43.898;2022-09-09T15:44:25;9.15;;;2.30;;
70322;SDS011;57735;56.264;43.898;2022-09-09T15:46:56;6.55;;;2.03;;
70322;SDS011;57735;56.264;43.898;2022-09-09T15:49:27;7.63;;;2.78;;
70322;SDS011;57735;56.264;43.898;2022-09-09T15:52:01;8.82;;;3.08;;
70322;SDS011;57735;56.264;43.898;2022-09-09T15:54:35;6.75;;;3.15;;
70322;SDS011;57735;56.264;43.898;2022-09-09T15:57:11;13.57;;;4.05;;
70322;SDS011;57735;56.264;43.898;2022-09-09T15:59:43;15.38;;;4.88;;
70322;SDS011;57735;56.264;43.898;2022-09-09T16:02:15;12.85;;;5.20;;
70322;SDS011;57735;56.264;43.898;2022-09-09T16:04:46;14.95;;;5.22;;
70322;SDS011;57735;56.264;43.898;2022-09-09T16:07:17;11.40;;;4.45;;
70322;SDS011;57735;56.264;43.898;2022-09-09T16:09:50;17.75;;;7.45;;
70322;SDS011;57735;56.264;43.898;2022-09-09T16:12:23;15.60;;;5.80;;
70322;SDS011;57735;56.264;43.898;2022-09-09T16:14:53;12.65;;;4.28;;
70322;SDS011;57735;56.264;43.898;2022-09-09T16:17:27;12.10;;;3.22;;
70322;SDS011;57735;56.264;43.898;2022-09-09T16:20:00;11.45;;;4.10;;
70322;SDS011;57735;56.264;43.898;2022-09-09T16:22:31;12.80;;;3.85;;
70322;SDS011;57735;56.264;43.898;2022-09-09T16:25:02;9.88;;;3.20;;
70322;SDS011;57735;56.264;43.898;2022-09-09T16:27:36;10.55;;;3.70;;
70322;SDS011;57735;56.264;43.898;2022-09-09T16:30:07;7.85;;;3.10;;
70322;SDS011;57735;56.264;43.898;2022-09-09T16:32:38;9.48;;;3.63;;
70322;SDS011;57735;56.264;43.898;2022-09-09T16:35:09;9.00;;;3.38;;
70322;SDS011;57735;56.264;43.898;2022-09-09T16:37:40;9.20;;;2.72;;
70322;SDS011;57735;56.264;43.898;2022-09-09T16:40:11;5.43;;;2.70;;
70322;SDS011;57735;56.264;43.898;2022-09-09T16:42:42;6.32;;;3.20;;
70322;SDS011;57735;56.264;43.898;2022-09-09T16:45:13;10.52;;;3.30;;
70322;SDS011;57735;56.264;43.898;2022-09-09T16:47:44;8.13;;;3.42;;
70322;SDS011;57735;56.264;43.898;2022-09-09T16:50:15;9.43;;;2.95;;
70322;SDS011;57735;56.264;43.898;2022-09-09T16:52:46;4.40;;;2.30;;
70322;SDS011;57735;56.264;43.898;2022-09-09T16:55:17;4.35;;;1.90;;
70322;SDS011;57735;56.264;43.898;2022-09-09T16:57:50;3.53;;;2.17;;
70322;SDS011;57735;56.264;43.898;2022-09-09T17:00:21;11.30;;;2.42;;
70322;SDS011;57735;56.264;43.898;2022-09-09T17:02:53;5.38;;;2.50;;
70322;SDS011;57735;56.264;43.898;2022-09-09T17:05:24;9.93;;;2.97;;
70322;SDS011;57735;56.264;43.898;2022-09-09T17:07:55;5.53;;;2.53;;
70322;SDS011;57735;56.264;43.898;2022-09-09T17:10:29;5.53;;;1.95;;
70322;SDS011;57735;56.264;43.898;2022-09-09T17:12:59;7.53;;;2.40;;
70322;SDS011;57735;56.264;43.898;2022-09-09T17:15:33;5.22;;;2.35;;
70322;SDS011;57735;56.264;43.898;2022-09-09T17:18:04;8.52;;;2.80;;
70322;SDS011;57735;56.264;43.898;2022-09-09T17:20:36;6.65;;;2.85;;
70322;SDS011;57735;56.264;43.898;2022-09-09T17:23:08;7.47;;;3.15;;
70322;SDS011;57735;56.264;43.898;2022-09-09T17:25:40;8.70;;;3.65;;